Main page


Airports :

St Athan, Wales

MOD St Athan

latitude: 51-24N, longitude: 003-26W, elevation: 50 m

Current weather observation

The report was made 45 minutes ago, at 16:50 UTC
Wind 7 kt from the North
Temperature 7°C
Humidity 61%
Pressure 1032 hPa
Visibility 10 km or more
Overcast at a height of 3500 ft

METAR: EGDX 201650Z 36007KT 9999 OVC035 07/00 Q1032 BLU

Time: 17:35 (17:35 UTC)


The report was made 4 hours and 2 minutes ago, at 13:33 UTC
Forecast valid from 20 at 15 UTC to 20 at 18 UTC
Wind 10 kt from the North
Visibility 10 km or more
Broken clouds at a height of 3500 ft

TAF: EGDX 201333Z 2015/2018 01010KT 9999 BKN035

Weather observations and forecasts of more than 4000 airports (METAR and TAF reports).

The available stations are represented by yellow and red dots on the map.

Hover mouse over dot to see the name of the station.

Then click to see weather observations and forecasts.

To change the map : click on the green buttons with a black cross to zoom in, on the green button with a dash to zoom out, or on the green arrows for adjacent maps.